ITY400 LIRF-EDDF
Flight info
| Callsign | ITY400 |
|---|---|
| Flight time | 1h 33m |
| Altitude | 36000 |
| Route | SOVAN DCT AMTEL DCT GIKEB DCT EKPEB DCT BRENO DCT KONIN DCT ERNAS T161 ASPAT/N0449F300 T161 DEBHI DEBHI1C |
| Aircraft | A320/M-SDE3FGHIRWY/LB1 |
Departure
| Time | 2026-04-14 14:51 |
|---|---|
| Airport | Rome–Fiumicino Leonardo da Vinci International Airport (LIRF) |
Arrival
| Time | 2026-04-14 16:25 |
|---|---|
| Airport | Frankfurt Main Airport (EDDF) |
| Time | Latitude | Longitude | Altitude | Speed | Heading |
|---|---|---|---|---|---|
| 2026-04-14 14:10 | 41.79757 | 12.25499 | 14 ft | 0 kts | 115° |
| 2026-04-14 14:40 | 41.79761 | 12.25487 | 14 ft | 4 kts | 111° |
| 2026-04-14 14:41 | 41.79767 | 12.25453 | 16 ft | 4 kts | 83° |
| 2026-04-14 14:41 | 41.79758 | 12.25425 | 15 ft | 4 kts | 30° |
| 2026-04-14 14:41 | 41.79750 | 12.25419 | 16 ft | 0 kts | 25° |
| 2026-04-14 14:45 | 41.79763 | 12.25428 | 15 ft | 7 kts | 25° |
| 2026-04-14 14:45 | 41.79837 | 12.25474 | 14 ft | 15 kts | 25° |
| 2026-04-14 14:46 | 41.79928 | 12.25531 | 14 ft | 15 kts | 25° |
| 2026-04-14 14:46 | 41.80006 | 12.25606 | 14 ft | 9 kts | 83° |
| 2026-04-14 14:46 | 41.79982 | 12.25665 | 14 ft | 10 kts | 120° |
| 2026-04-14 14:46 | 41.79943 | 12.25774 | 14 ft | 16 kts | 116° |
| 2026-04-14 14:47 | 41.79936 | 12.25861 | 14 ft | 5 kts | 28° |
| 2026-04-14 14:47 | 41.79991 | 12.25895 | 16 ft | 12 kts | 26° |
| 2026-04-14 14:47 | 41.80087 | 12.25958 | 14 ft | 19 kts | 25° |
| 2026-04-14 14:47 | 41.80224 | 12.26042 | 14 ft | 25 kts | 25° |
| 2026-04-14 14:48 | 41.80382 | 12.26137 | 15 ft | 23 kts | 26° |
| 2026-04-14 14:48 | 41.80491 | 12.26177 | 16 ft | 6 kts | 355° |
| 2026-04-14 14:48 | 41.80522 | 12.26217 | 16 ft | 8 kts | 66° |
| 2026-04-14 14:48 | 41.80548 | 12.26310 | 18 ft | 13 kts | 69° |
| 2026-04-14 14:49 | 41.80585 | 12.26443 | 16 ft | 18 kts | 70° |
| 2026-04-14 14:49 | 41.80632 | 12.26617 | 16 ft | 22 kts | 70° |
| 2026-04-14 14:49 | 41.80689 | 12.26828 | 14 ft | 26 kts | 69° |
| 2026-04-14 14:49 | 41.80751 | 12.27036 | 14 ft | 16 kts | 44° |
| 2026-04-14 14:50 | 41.80850 | 12.27021 | 13 ft | 14 kts | 339° |
| 2026-04-14 14:50 | 41.80948 | 12.26970 | 13 ft | 12 kts | 332° |
| 2026-04-14 14:50 | 41.80941 | 12.26861 | 13 ft | 15 kts | 251° |
| 2026-04-14 14:50 | 41.80840 | 12.26507 | 17 ft | 76 kts | 250° |
| 2026-04-14 14:51 | 41.80581 | 12.25563 | 17 ft | 137 kts | 248° |
| 2026-04-14 14:51 | 41.80206 | 12.24177 | 216 ft | 163 kts | 246° |
| 2026-04-14 14:51 | 41.79867 | 12.22823 | 982 ft | 151 kts | 246° |
| 2026-04-14 14:51 | 41.79503 | 12.21399 | 1317 ft | 170 kts | 246° |
| 2026-04-14 14:52 | 41.79231 | 12.19787 | 1772 ft | 189 kts | 269° |
| 2026-04-14 14:52 | 41.79693 | 12.18043 | 2160 ft | 211 kts | 302° |
| 2026-04-14 14:52 | 41.80592 | 12.16420 | 2719 ft | 218 kts | 306° |
| 2026-04-14 14:52 | 41.81551 | 12.14822 | 3302 ft | 222 kts | 307° |
| 2026-04-14 14:53 | 41.82540 | 12.13215 | 3949 ft | 225 kts | 308° |
| 2026-04-14 14:53 | 41.83538 | 12.11594 | 4618 ft | 226 kts | 305° |
| 2026-04-14 14:53 | 41.84271 | 12.09747 | 5373 ft | 227 kts | 285° |
| 2026-04-14 14:53 | 41.84554 | 12.07619 | 5824 ft | 239 kts | 273° |
| 2026-04-14 14:54 | 41.84738 | 12.05334 | 6259 ft | 256 kts | 274° |
| 2026-04-14 14:54 | 41.84941 | 12.02884 | 6708 ft | 273 kts | 274° |
| 2026-04-14 14:54 | 41.85156 | 12.00290 | 7284 ft | 283 kts | 274° |
| 2026-04-14 14:54 | 41.85379 | 11.97646 | 8050 ft | 287 kts | 274° |
| 2026-04-14 14:55 | 41.85607 | 11.94971 | 8841 ft | 290 kts | 274° |
| 2026-04-14 14:55 | 41.85931 | 11.92287 | 9610 ft | 295 kts | 285° |
| 2026-04-14 14:55 | 41.86821 | 11.89784 | 10261 ft | 304 kts | 304° |
| 2026-04-14 14:55 | 41.88344 | 11.87723 | 10654 ft | 321 kts | 325° |
| 2026-04-14 14:56 | 41.92778 | 11.86234 | 11408 ft | 349 kts | 8° |
| 2026-04-14 14:56 | 41.95117 | 11.87236 | 11768 ft | 360 kts | 29° |
| 2026-04-14 14:56 | 41.97360 | 11.88837 | 12310 ft | 368 kts | 30° |
| 2026-04-14 14:57 | 41.99629 | 11.90472 | 12963 ft | 372 kts | 30° |
| 2026-04-14 14:57 | 42.01918 | 11.92121 | 13620 ft | 375 kts | 30° |
| 2026-04-14 14:57 | 42.04233 | 11.93788 | 14223 ft | 379 kts | 30° |
| 2026-04-14 14:57 | 42.06569 | 11.95467 | 14815 ft | 382 kts | 30° |
| 2026-04-14 14:58 | 42.08924 | 11.97156 | 15392 ft | 385 kts | 30° |
| 2026-04-14 14:58 | 42.11300 | 11.98861 | 15964 ft | 389 kts | 30° |
| 2026-04-14 14:58 | 42.13693 | 12.00582 | 16530 ft | 392 kts | 30° |
| 2026-04-14 14:58 | 42.16196 | 12.02086 | 17084 ft | 397 kts | 20° |
| 2026-04-14 14:59 | 42.18891 | 12.02935 | 17583 ft | 401 kts | 8° |
| 2026-04-14 14:59 | 42.21694 | 12.03068 | 18148 ft | 406 kts | 356° |
| 2026-04-14 14:59 | 42.24503 | 12.02538 | 18638 ft | 410 kts | 351° |
| 2026-04-14 14:59 | 42.27324 | 12.01889 | 19113 ft | 413 kts | 351° |
| 2026-04-14 15:00 | 42.30171 | 12.01242 | 19604 ft | 416 kts | 351° |
| 2026-04-14 15:00 | 42.33038 | 12.00597 | 20093 ft | 419 kts | 351° |
| 2026-04-14 15:00 | 42.35925 | 11.99951 | 20572 ft | 422 kts | 351° |
| 2026-04-14 15:00 | 42.38832 | 11.99298 | 21036 ft | 425 kts | 351° |
| 2026-04-14 15:01 | 42.41760 | 11.98638 | 21481 ft | 428 kts | 351° |
| 2026-04-14 15:01 | 42.43714 | 11.98196 | 21770 ft | 431 kts | 351° |
| 2026-04-14 15:01 | 42.46683 | 11.97527 | 22200 ft | 434 kts | 351° |
| 2026-04-14 15:01 | 42.49672 | 11.96855 | 22609 ft | 437 kts | 351° |
| 2026-04-14 15:02 | 42.52684 | 11.96178 | 23022 ft | 440 kts | 351° |
| 2026-04-14 15:02 | 42.55719 | 11.95495 | 23412 ft | 443 kts | 351° |
| 2026-04-14 15:02 | 42.58769 | 11.94806 | 23756 ft | 446 kts | 351° |
| 2026-04-14 15:02 | 42.61841 | 11.94105 | 24087 ft | 448 kts | 351° |
| 2026-04-14 15:03 | 42.64924 | 11.93399 | 24424 ft | 450 kts | 351° |
| 2026-04-14 15:03 | 42.68021 | 11.92694 | 24763 ft | 452 kts | 351° |
| 2026-04-14 15:03 | 42.71127 | 11.91991 | 25089 ft | 454 kts | 351° |
| 2026-04-14 15:03 | 42.74250 | 11.91284 | 25413 ft | 455 kts | 351° |
| 2026-04-14 15:04 | 42.77377 | 11.90571 | 25729 ft | 457 kts | 351° |
| 2026-04-14 15:04 | 42.80519 | 11.89842 | 26044 ft | 459 kts | 349° |
| 2026-04-14 15:04 | 42.83605 | 11.88707 | 26363 ft | 461 kts | 340° |
| 2026-04-14 15:04 | 42.86543 | 11.86942 | 26658 ft | 462 kts | 332° |
| 2026-04-14 15:05 | 42.89355 | 11.84867 | 26931 ft | 464 kts | 331° |
| 2026-04-14 15:05 | 42.92197 | 11.82779 | 27217 ft | 466 kts | 332° |
| 2026-04-14 15:05 | 42.95074 | 11.80674 | 27501 ft | 468 kts | 332° |
| 2026-04-14 15:05 | 42.97943 | 11.78579 | 27774 ft | 469 kts | 332° |
| 2026-04-14 15:06 | 43.00838 | 11.76466 | 28044 ft | 471 kts | 332° |
| 2026-04-14 15:06 | 43.03705 | 11.74369 | 28301 ft | 472 kts | 332° |
| 2026-04-14 15:06 | 43.06624 | 11.72230 | 28551 ft | 473 kts | 331° |
| 2026-04-14 15:06 | 43.09542 | 11.70090 | 28786 ft | 475 kts | 331° |
| 2026-04-14 15:07 | 43.12443 | 11.67954 | 29014 ft | 476 kts | 331° |
| 2026-04-14 15:07 | 43.15345 | 11.65812 | 29243 ft | 477 kts | 331° |
| 2026-04-14 15:07 | 43.18305 | 11.63690 | 29467 ft | 478 kts | 335° |
| 2026-04-14 15:07 | 43.21424 | 11.62089 | 29768 ft | 478 kts | 344° |
| 2026-04-14 15:08 | 43.24671 | 11.61156 | 30073 ft | 476 kts | 353° |
| 2026-04-14 15:08 | 43.27937 | 11.60883 | 30316 ft | 475 kts | 1° |
| 2026-04-14 15:08 | 43.31244 | 11.60906 | 30543 ft | 475 kts | 1° |
| 2026-04-14 15:08 | 43.34560 | 11.60920 | 30768 ft | 475 kts | 0° |
| 2026-04-14 15:09 | 43.37878 | 11.60927 | 31005 ft | 475 kts | 0° |
| 2026-04-14 15:09 | 43.41192 | 11.60934 | 31242 ft | 475 kts | 0° |
| 2026-04-14 15:09 | 43.44500 | 11.60944 | 31481 ft | 475 kts | 0° |
| 2026-04-14 15:09 | 43.47800 | 11.60956 | 31715 ft | 475 kts | 0° |
| 2026-04-14 15:10 | 43.51105 | 11.60969 | 31946 ft | 474 kts | 0° |
| 2026-04-14 15:10 | 43.54380 | 11.60981 | 32175 ft | 474 kts | 0° |
| 2026-04-14 15:10 | 43.57684 | 11.60998 | 32400 ft | 474 kts | 0° |
| 2026-04-14 15:10 | 43.60975 | 11.61015 | 32641 ft | 474 kts | 0° |
| 2026-04-14 15:11 | 43.64297 | 11.61030 | 32882 ft | 474 kts | 0° |
| 2026-04-14 15:11 | 43.67587 | 11.61045 | 33125 ft | 474 kts | 0° |
| 2026-04-14 15:11 | 43.70860 | 11.61059 | 33339 ft | 474 kts | 0° |
| 2026-04-14 15:11 | 43.74147 | 11.61073 | 33544 ft | 474 kts | 0° |
| 2026-04-14 15:12 | 43.77483 | 11.61088 | 33769 ft | 474 kts | 0° |
| 2026-04-14 15:12 | 43.80770 | 11.61102 | 33983 ft | 474 kts | 0° |
| 2026-04-14 15:12 | 43.84045 | 11.61116 | 34166 ft | 474 kts | 0° |
| 2026-04-14 15:12 | 43.87370 | 11.61131 | 34353 ft | 474 kts | 0° |
| 2026-04-14 15:13 | 43.90677 | 11.61142 | 34555 ft | 474 kts | 0° |
| 2026-04-14 15:13 | 43.93934 | 11.61151 | 34756 ft | 473 kts | 0° |
| 2026-04-14 15:13 | 43.97229 | 11.61163 | 34945 ft | 473 kts | 360° |
| 2026-04-14 15:13 | 44.00521 | 11.61175 | 35133 ft | 472 kts | 360° |
| 2026-04-14 15:14 | 44.03805 | 11.61189 | 35312 ft | 472 kts | 360° |
| 2026-04-14 15:14 | 44.07085 | 11.61203 | 35499 ft | 471 kts | 360° |
| 2026-04-14 15:14 | 44.10365 | 11.61219 | 35680 ft | 470 kts | 360° |
| 2026-04-14 15:14 | 44.13635 | 11.61235 | 35872 ft | 468 kts | 360° |
| 2026-04-14 15:15 | 44.16892 | 11.61248 | 35991 ft | 469 kts | 359° |
| 2026-04-14 15:15 | 44.20158 | 11.61258 | 36012 ft | 469 kts | 359° |
| 2026-04-14 15:15 | 44.26635 | 11.61283 | 36014 ft | 468 kts | 359° |
| 2026-04-14 15:16 | 44.33174 | 11.61310 | 36015 ft | 468 kts | 359° |
| 2026-04-14 15:16 | 44.39657 | 11.61337 | 36016 ft | 467 kts | 359° |
| 2026-04-14 15:17 | 44.46172 | 11.61365 | 36016 ft | 467 kts | 359° |
| 2026-04-14 15:17 | 44.52640 | 11.61393 | 36023 ft | 466 kts | 359° |
| 2026-04-14 15:18 | 44.59139 | 11.61423 | 36027 ft | 466 kts | 359° |
| 2026-04-14 15:18 | 44.65581 | 11.61448 | 36034 ft | 465 kts | 359° |
| 2026-04-14 15:19 | 44.72068 | 11.61468 | 36035 ft | 465 kts | 359° |
| 2026-04-14 15:19 | 44.78541 | 11.61487 | 36036 ft | 464 kts | 359° |
| 2026-04-14 15:20 | 44.85010 | 11.61520 | 36034 ft | 464 kts | 359° |
| 2026-04-14 15:20 | 44.91431 | 11.61553 | 36035 ft | 464 kts | 359° |
| 2026-04-14 15:21 | 44.97908 | 11.61575 | 36032 ft | 464 kts | 359° |
| 2026-04-14 15:21 | 45.04357 | 11.61590 | 36038 ft | 464 kts | 359° |
| 2026-04-14 15:22 | 45.10823 | 11.61619 | 36039 ft | 464 kts | 359° |
| 2026-04-14 15:22 | 45.17243 | 11.61650 | 36040 ft | 464 kts | 359° |
| 2026-04-14 15:23 | 45.23717 | 11.61680 | 36039 ft | 464 kts | 359° |
| 2026-04-14 15:23 | 45.30141 | 11.61708 | 36038 ft | 463 kts | 359° |
| 2026-04-14 15:24 | 45.36599 | 11.61739 | 36039 ft | 463 kts | 359° |
| 2026-04-14 15:24 | 45.43055 | 11.61774 | 36039 ft | 463 kts | 359° |
| 2026-04-14 15:25 | 45.49503 | 11.61798 | 36036 ft | 463 kts | 359° |
| 2026-04-14 15:25 | 45.55929 | 11.61825 | 36030 ft | 462 kts | 359° |
| 2026-04-14 15:26 | 45.62354 | 11.61846 | 36033 ft | 462 kts | 359° |
| 2026-04-14 15:26 | 45.68781 | 11.61869 | 36037 ft | 462 kts | 359° |
| 2026-04-14 15:27 | 45.75224 | 11.61903 | 36043 ft | 461 kts | 359° |
| 2026-04-14 15:27 | 45.81639 | 11.61931 | 36037 ft | 461 kts | 359° |
| 2026-04-14 15:28 | 45.88013 | 11.61953 | 36035 ft | 461 kts | 359° |
| 2026-04-14 15:28 | 45.94445 | 11.61978 | 36033 ft | 461 kts | 359° |
| 2026-04-14 15:29 | 46.00875 | 11.62012 | 36034 ft | 460 kts | 359° |
| 2026-04-14 15:29 | 46.07263 | 11.62048 | 36035 ft | 460 kts | 359° |
| 2026-04-14 15:30 | 46.13633 | 11.62071 | 36032 ft | 459 kts | 359° |
| 2026-04-14 15:30 | 46.20005 | 11.61577 | 36027 ft | 456 kts | 347° |
| 2026-04-14 15:31 | 46.26203 | 11.59763 | 36025 ft | 456 kts | 347° |
| 2026-04-14 15:31 | 46.32412 | 11.57953 | 36029 ft | 456 kts | 347° |
| 2026-04-14 15:32 | 46.38611 | 11.56147 | 36035 ft | 455 kts | 347° |
| 2026-04-14 15:32 | 46.44813 | 11.54337 | 36035 ft | 454 kts | 347° |
| 2026-04-14 15:33 | 46.51003 | 11.52521 | 36034 ft | 454 kts | 347° |
| 2026-04-14 15:33 | 46.57226 | 11.50689 | 36033 ft | 454 kts | 347° |
| 2026-04-14 15:34 | 46.63395 | 11.48865 | 36036 ft | 454 kts | 347° |
| 2026-04-14 15:34 | 46.69583 | 11.47031 | 36047 ft | 454 kts | 347° |
| 2026-04-14 15:35 | 46.75744 | 11.45086 | 36060 ft | 453 kts | 346° |
| 2026-04-14 15:35 | 46.81891 | 11.43026 | 36078 ft | 453 kts | 346° |
| 2026-04-14 15:36 | 46.88071 | 11.40951 | 36092 ft | 453 kts | 346° |
| 2026-04-14 15:36 | 46.94209 | 11.38919 | 36115 ft | 453 kts | 346° |
| 2026-04-14 15:37 | 47.00430 | 11.37629 | 36137 ft | 454 kts | 359° |
| 2026-04-14 15:37 | 47.06742 | 11.37595 | 36156 ft | 455 kts | 359° |
| 2026-04-14 15:38 | 47.13098 | 11.37538 | 36175 ft | 454 kts | 358° |
| 2026-04-14 15:38 | 47.19386 | 11.37463 | 36182 ft | 454 kts | 358° |
| 2026-04-14 15:39 | 47.25706 | 11.37397 | 36178 ft | 454 kts | 358° |
| 2026-04-14 15:39 | 47.32025 | 11.37337 | 36177 ft | 454 kts | 359° |
| 2026-04-14 15:40 | 47.38348 | 11.37279 | 36176 ft | 454 kts | 358° |
| 2026-04-14 15:40 | 47.44661 | 11.37212 | 36173 ft | 454 kts | 359° |
| 2026-04-14 15:41 | 47.50974 | 11.37151 | 36175 ft | 454 kts | 359° |
| 2026-04-14 15:41 | 47.57300 | 11.37092 | 36183 ft | 454 kts | 359° |
| 2026-04-14 15:42 | 47.63623 | 11.37028 | 36188 ft | 453 kts | 359° |
| 2026-04-14 15:42 | 47.69923 | 11.36962 | 36187 ft | 454 kts | 359° |
| 2026-04-14 15:43 | 47.76214 | 11.36905 | 36193 ft | 454 kts | 359° |
| 2026-04-14 15:43 | 47.82539 | 11.36850 | 36192 ft | 454 kts | 359° |
| 2026-04-14 15:44 | 47.88850 | 11.36344 | 36193 ft | 453 kts | 353° |
| 2026-04-14 15:44 | 47.95130 | 11.35398 | 36199 ft | 453 kts | 353° |
| 2026-04-14 15:45 | 48.01383 | 11.34460 | 36204 ft | 453 kts | 353° |
| 2026-04-14 15:45 | 48.07674 | 11.33529 | 36209 ft | 453 kts | 353° |
| 2026-04-14 15:46 | 48.13936 | 11.32603 | 36209 ft | 453 kts | 353° |
| 2026-04-14 15:46 | 48.20205 | 11.31675 | 36210 ft | 452 kts | 353° |
| 2026-04-14 15:47 | 48.26445 | 11.30749 | 36204 ft | 452 kts | 353° |
| 2026-04-14 15:47 | 48.32711 | 11.29794 | 36197 ft | 452 kts | 353° |
| 2026-04-14 15:48 | 48.38937 | 11.28854 | 36199 ft | 451 kts | 353° |
| 2026-04-14 15:48 | 48.45206 | 11.27913 | 36200 ft | 451 kts | 353° |
| 2026-04-14 15:49 | 48.51450 | 11.26969 | 36204 ft | 451 kts | 353° |
| 2026-04-14 15:49 | 48.56633 | 11.26189 | 36208 ft | 450 kts | 353° |
| 2026-04-14 15:50 | 48.62867 | 11.25244 | 36206 ft | 450 kts | 353° |
| 2026-04-14 15:50 | 48.69084 | 11.24290 | 36206 ft | 449 kts | 353° |
| 2026-04-14 15:51 | 48.75326 | 11.23331 | 36205 ft | 448 kts | 353° |
| 2026-04-14 15:51 | 48.81468 | 11.21974 | 36204 ft | 446 kts | 342° |
| 2026-04-14 15:52 | 48.87025 | 11.18016 | 36193 ft | 442 kts | 323° |
| 2026-04-14 15:52 | 48.91672 | 11.11913 | 36194 ft | 441 kts | 316° |
| 2026-04-14 15:53 | 48.96179 | 11.05621 | 36207 ft | 441 kts | 316° |
| 2026-04-14 15:53 | 49.00695 | 10.99308 | 36223 ft | 441 kts | 316° |
| 2026-04-14 15:54 | 49.05204 | 10.92975 | 35775 ft | 442 kts | 316° |
| 2026-04-14 15:54 | 49.07478 | 10.89771 | 34823 ft | 446 kts | 316° |
| 2026-04-14 15:54 | 49.09766 | 10.86546 | 33861 ft | 449 kts | 316° |
| 2026-04-14 15:55 | 49.12067 | 10.83296 | 32795 ft | 451 kts | 316° |
| 2026-04-14 15:55 | 49.14387 | 10.80012 | 31778 ft | 453 kts | 316° |
| 2026-04-14 15:55 | 49.16678 | 10.76765 | 30735 ft | 455 kts | 316° |
| 2026-04-14 15:55 | 49.19020 | 10.73440 | 29506 ft | 460 kts | 316° |
| 2026-04-14 15:56 | 49.21318 | 10.70100 | 28944 ft | 449 kts | 314° |
| 2026-04-14 15:56 | 49.23508 | 10.66747 | 28235 ft | 442 kts | 313° |
| 2026-04-14 15:56 | 49.25628 | 10.63378 | 27544 ft | 437 kts | 312° |
| 2026-04-14 15:56 | 49.27705 | 10.60022 | 26868 ft | 432 kts | 312° |
| 2026-04-14 15:57 | 49.29759 | 10.56695 | 26219 ft | 428 kts | 312° |
| 2026-04-14 15:57 | 49.31808 | 10.53397 | 25559 ft | 424 kts | 312° |
| 2026-04-14 15:57 | 49.33850 | 10.50141 | 24918 ft | 421 kts | 313° |
| 2026-04-14 15:57 | 49.35850 | 10.46895 | 24380 ft | 415 kts | 308° |
| 2026-04-14 15:58 | 49.37567 | 10.43351 | 24206 ft | 414 kts | 303° |
| 2026-04-14 15:58 | 49.39221 | 10.39728 | 24116 ft | 414 kts | 303° |
| 2026-04-14 15:58 | 49.40877 | 10.36115 | 24026 ft | 414 kts | 304° |
| 2026-04-14 15:58 | 49.42518 | 10.32534 | 23793 ft | 412 kts | 303° |
| 2026-04-14 15:59 | 49.44171 | 10.28916 | 23521 ft | 410 kts | 303° |
| 2026-04-14 15:59 | 49.45798 | 10.25340 | 23242 ft | 409 kts | 303° |
| 2026-04-14 15:59 | 49.47419 | 10.21774 | 22972 ft | 407 kts | 303° |
| 2026-04-14 15:59 | 49.49036 | 10.18211 | 22706 ft | 406 kts | 303° |
| 2026-04-14 16:00 | 49.50647 | 10.14652 | 22435 ft | 404 kts | 303° |
| 2026-04-14 16:00 | 49.52255 | 10.11092 | 22165 ft | 403 kts | 303° |
| 2026-04-14 16:00 | 49.53835 | 10.07584 | 21902 ft | 402 kts | 303° |
| 2026-04-14 16:00 | 49.55432 | 10.04041 | 21642 ft | 400 kts | 303° |
| 2026-04-14 16:01 | 49.57014 | 10.00531 | 21373 ft | 399 kts | 303° |
| 2026-04-14 16:01 | 49.58592 | 9.97028 | 21122 ft | 397 kts | 303° |
| 2026-04-14 16:01 | 49.60169 | 9.93524 | 20873 ft | 396 kts | 303° |
| 2026-04-14 16:01 | 49.61735 | 9.90030 | 20616 ft | 395 kts | 303° |
| 2026-04-14 16:02 | 49.63296 | 9.86539 | 20360 ft | 394 kts | 303° |
| 2026-04-14 16:02 | 49.64852 | 9.83061 | 20111 ft | 392 kts | 303° |
| 2026-04-14 16:02 | 49.66401 | 9.79603 | 19877 ft | 391 kts | 303° |
| 2026-04-14 16:02 | 49.67945 | 9.76150 | 19628 ft | 390 kts | 303° |
| 2026-04-14 16:03 | 49.69483 | 9.72707 | 19372 ft | 389 kts | 303° |
| 2026-04-14 16:03 | 49.71015 | 9.69268 | 19029 ft | 387 kts | 303° |
| 2026-04-14 16:03 | 49.72529 | 9.65857 | 18592 ft | 385 kts | 303° |
| 2026-04-14 16:03 | 49.74029 | 9.62468 | 18109 ft | 382 kts | 303° |
| 2026-04-14 16:04 | 49.75530 | 9.59080 | 17615 ft | 379 kts | 303° |
| 2026-04-14 16:04 | 49.77017 | 9.55724 | 17141 ft | 376 kts | 303° |
| 2026-04-14 16:04 | 49.78492 | 9.52387 | 16674 ft | 373 kts | 303° |
| 2026-04-14 16:04 | 49.79933 | 9.49124 | 16209 ft | 370 kts | 303° |
| 2026-04-14 16:05 | 49.81381 | 9.45837 | 15746 ft | 368 kts | 303° |
| 2026-04-14 16:05 | 49.82821 | 9.42572 | 15284 ft | 365 kts | 303° |
| 2026-04-14 16:05 | 49.84249 | 9.39332 | 14830 ft | 362 kts | 303° |
| 2026-04-14 16:05 | 49.85624 | 9.36106 | 14376 ft | 359 kts | 299° |
| 2026-04-14 16:06 | 49.86653 | 9.32613 | 13964 ft | 355 kts | 288° |
| 2026-04-14 16:06 | 49.87356 | 9.28943 | 13594 ft | 354 kts | 285° |
| 2026-04-14 16:06 | 49.88048 | 9.25290 | 13257 ft | 352 kts | 285° |
| 2026-04-14 16:06 | 49.88743 | 9.21660 | 12895 ft | 351 kts | 285° |
| 2026-04-14 16:07 | 49.89435 | 9.18047 | 12546 ft | 349 kts | 285° |
| 2026-04-14 16:07 | 49.90125 | 9.14442 | 12194 ft | 348 kts | 285° |
| 2026-04-14 16:07 | 49.90807 | 9.10854 | 11853 ft | 346 kts | 285° |
| 2026-04-14 16:07 | 49.91485 | 9.07281 | 11508 ft | 345 kts | 285° |
| 2026-04-14 16:08 | 49.92162 | 9.03714 | 11153 ft | 344 kts | 285° |
| 2026-04-14 16:08 | 49.92843 | 9.00125 | 11017 ft | 344 kts | 285° |
| 2026-04-14 16:08 | 49.93521 | 8.96587 | 10879 ft | 343 kts | 285° |
| 2026-04-14 16:08 | 49.94193 | 8.93082 | 10750 ft | 331 kts | 285° |
| 2026-04-14 16:09 | 49.94834 | 8.89727 | 10628 ft | 317 kts | 285° |
| 2026-04-14 16:09 | 49.95445 | 8.86520 | 10508 ft | 304 kts | 285° |
| 2026-04-14 16:09 | 49.96030 | 8.83435 | 10376 ft | 292 kts | 285° |
| 2026-04-14 16:09 | 49.96597 | 8.80440 | 10197 ft | 285 kts | 284° |
| 2026-04-14 16:10 | 49.97156 | 8.77479 | 10078 ft | 285 kts | 284° |
| 2026-04-14 16:10 | 49.97691 | 8.74514 | 9945 ft | 282 kts | 279° |
| 2026-04-14 16:10 | 49.97846 | 8.71563 | 9814 ft | 268 kts | 265° |
| 2026-04-14 16:10 | 49.97535 | 8.68778 | 9676 ft | 255 kts | 251° |
| 2026-04-14 16:11 | 49.96934 | 8.66249 | 9544 ft | 244 kts | 248° |
| 2026-04-14 16:11 | 49.96356 | 8.63855 | 9411 ft | 233 kts | 248° |
| 2026-04-14 16:11 | 49.95804 | 8.61559 | 9299 ft | 222 kts | 249° |
| 2026-04-14 16:11 | 49.95262 | 8.59300 | 9195 ft | 224 kts | 249° |
| 2026-04-14 16:12 | 49.94714 | 8.57017 | 9190 ft | 225 kts | 249° |
| 2026-04-14 16:12 | 49.94167 | 8.54744 | 9193 ft | 224 kts | 249° |
| 2026-04-14 16:12 | 49.93621 | 8.52475 | 9198 ft | 224 kts | 249° |
| 2026-04-14 16:12 | 49.93079 | 8.50231 | 9195 ft | 225 kts | 248° |
| 2026-04-14 16:13 | 49.92519 | 8.47926 | 9052 ft | 224 kts | 249° |
| 2026-04-14 16:13 | 49.91981 | 8.45695 | 8723 ft | 224 kts | 249° |
| 2026-04-14 16:13 | 49.91429 | 8.43403 | 8336 ft | 224 kts | 249° |
| 2026-04-14 16:13 | 49.90883 | 8.41142 | 7968 ft | 224 kts | 250° |
| 2026-04-14 16:14 | 49.90335 | 8.38873 | 7604 ft | 225 kts | 250° |
| 2026-04-14 16:14 | 49.89784 | 8.36599 | 7250 ft | 225 kts | 250° |
| 2026-04-14 16:14 | 49.89233 | 8.34323 | 6919 ft | 225 kts | 250° |
| 2026-04-14 16:14 | 49.88683 | 8.32050 | 6588 ft | 224 kts | 251° |
| 2026-04-14 16:15 | 49.88141 | 8.29817 | 6259 ft | 223 kts | 251° |
| 2026-04-14 16:15 | 49.87594 | 8.27575 | 5934 ft | 222 kts | 251° |
| 2026-04-14 16:15 | 49.87049 | 8.25345 | 5613 ft | 220 kts | 251° |
| 2026-04-14 16:15 | 49.86508 | 8.23127 | 5332 ft | 219 kts | 251° |
| 2026-04-14 16:16 | 49.85973 | 8.20932 | 5059 ft | 215 kts | 251° |
| 2026-04-14 16:16 | 49.85441 | 8.18751 | 5026 ft | 218 kts | 251° |
| 2026-04-14 16:16 | 49.84906 | 8.16558 | 5017 ft | 217 kts | 251° |
| 2026-04-14 16:16 | 49.84370 | 8.14355 | 4976 ft | 218 kts | 251° |
| 2026-04-14 16:17 | 49.83876 | 8.12148 | 4733 ft | 215 kts | 262° |
| 2026-04-14 16:17 | 49.84025 | 8.09963 | 4411 ft | 205 kts | 298° |
| 2026-04-14 16:17 | 49.84965 | 8.08373 | 4038 ft | 200 kts | 335° |
| 2026-04-14 16:17 | 49.86311 | 8.07986 | 3877 ft | 203 kts | 8° |
| 2026-04-14 16:18 | 49.87674 | 8.08543 | 4187 ft | 207 kts | 21° |
| 2026-04-14 16:18 | 49.88917 | 8.09593 | 4031 ft | 201 kts | 38° |
| 2026-04-14 16:18 | 49.89979 | 8.11060 | 4032 ft | 205 kts | 43° |
| 2026-04-14 16:18 | 49.90983 | 8.12641 | 4022 ft | 206 kts | 46° |
| 2026-04-14 16:19 | 49.91961 | 8.14270 | 4015 ft | 206 kts | 46° |
| 2026-04-14 16:19 | 49.92929 | 8.15903 | 4015 ft | 206 kts | 46° |
| 2026-04-14 16:19 | 49.93889 | 8.17552 | 4021 ft | 206 kts | 52° |
| 2026-04-14 16:19 | 49.94553 | 8.19509 | 4021 ft | 206 kts | 66° |
| 2026-04-14 16:20 | 49.95070 | 8.21587 | 4014 ft | 206 kts | 68° |
| 2026-04-14 16:20 | 49.95559 | 8.23615 | 4014 ft | 196 kts | 68° |
| 2026-04-14 16:20 | 49.96040 | 8.25595 | 4020 ft | 196 kts | 68° |
| 2026-04-14 16:20 | 49.96520 | 8.27574 | 3900 ft | 196 kts | 68° |
| 2026-04-14 16:21 | 49.96998 | 8.29544 | 3695 ft | 193 kts | 68° |
| 2026-04-14 16:21 | 49.97466 | 8.31478 | 3432 ft | 190 kts | 68° |
| 2026-04-14 16:21 | 49.97927 | 8.33381 | 3181 ft | 186 kts | 68° |
| 2026-04-14 16:21 | 49.98379 | 8.35249 | 2930 ft | 183 kts | 68° |
| 2026-04-14 16:22 | 49.98822 | 8.37085 | 2681 ft | 180 kts | 68° |
| 2026-04-14 16:22 | 49.99251 | 8.38864 | 2449 ft | 171 kts | 68° |
| 2026-04-14 16:22 | 49.99671 | 8.40600 | 2213 ft | 171 kts | 68° |
| 2026-04-14 16:22 | 50.00084 | 8.42313 | 1985 ft | 166 kts | 68° |
| 2026-04-14 16:23 | 50.00477 | 8.43946 | 1764 ft | 155 kts | 68° |
| 2026-04-14 16:23 | 50.00842 | 8.45465 | 1537 ft | 148 kts | 68° |
| 2026-04-14 16:23 | 50.01202 | 8.46960 | 1317 ft | 147 kts | 67° |
| 2026-04-14 16:23 | 50.01561 | 8.48453 | 1075 ft | 147 kts | 68° |
| 2026-04-14 16:24 | 50.01920 | 8.49947 | 852 ft | 147 kts | 69° |
| 2026-04-14 16:24 | 50.02280 | 8.51431 | 663 ft | 146 kts | 68° |
| 2026-04-14 16:24 | 50.02629 | 8.52924 | 432 ft | 146 kts | 68° |
| 2026-04-14 16:24 | 50.02987 | 8.54378 | 335 ft | 134 kts | 69° |
| 2026-04-14 16:25 | 50.03246 | 8.55471 | 343 ft | 66 kts | 69° |
| 2026-04-14 16:25 | 50.03417 | 8.55833 | 344 ft | 22 kts | 40° |
| 2026-04-14 16:25 | 50.03527 | 8.55975 | 354 ft | 14 kts | 38° |
| 2026-04-14 16:25 | 50.03583 | 8.56048 | 356 ft | 4 kts | 39° |
| 2026-04-14 16:26 | 50.03584 | 8.56048 | 356 ft | 0 kts | 39° |
| 2026-04-14 16:27 | 50.03591 | 8.56057 | 354 ft | 4 kts | 39° |
| 2026-04-14 16:27 | 50.03626 | 8.56104 | 354 ft | 9 kts | 46° |
| 2026-04-14 16:27 | 50.03669 | 8.56218 | 354 ft | 16 kts | 67° |
| 2026-04-14 16:27 | 50.03716 | 8.56411 | 357 ft | 23 kts | 70° |
| 2026-04-14 16:28 | 50.03778 | 8.56671 | 353 ft | 29 kts | 70° |
| 2026-04-14 16:28 | 50.03815 | 8.56821 | 360 ft | 6 kts | 69° |
| 2026-04-14 16:28 | 50.03839 | 8.56919 | 354 ft | 14 kts | 69° |
| 2026-04-14 16:28 | 50.03878 | 8.57085 | 358 ft | 19 kts | 70° |
| 2026-04-14 16:29 | 50.03927 | 8.57294 | 364 ft | 22 kts | 69° |
| 2026-04-14 16:29 | 50.03966 | 8.57457 | 365 ft | 25 kts | 70° |
| 2026-04-14 16:29 | 50.04031 | 8.57729 | 370 ft | 27 kts | 70° |
| 2026-04-14 16:29 | 50.04096 | 8.58000 | 371 ft | 25 kts | 70° |
| 2026-04-14 16:30 | 50.04176 | 8.58162 | 367 ft | 16 kts | 24° |
| 2026-04-14 16:30 | 50.04271 | 8.58209 | 370 ft | 13 kts | 356° |
| 2026-04-14 16:30 | 50.04291 | 8.58201 | 370 ft | 0 kts | 339° |
| 2026-04-14 16:31 | 50.04306 | 8.58192 | 367 ft | 5 kts | 339° |
| 2026-04-14 16:32 | 50.04350 | 8.58166 | 369 ft | 10 kts | 339° |
| 2026-04-14 16:32 | 50.04435 | 8.58118 | 369 ft | 16 kts | 341° |
| 2026-04-14 16:32 | 50.04527 | 8.58056 | 365 ft | 11 kts | 316° |
| 2026-04-14 16:32 | 50.04517 | 8.57914 | 364 ft | 17 kts | 249° |
| 2026-04-14 16:33 | 50.04476 | 8.57741 | 366 ft | 9 kts | 250° |
| 2026-04-14 16:33 | 50.04476 | 8.57737 | 366 ft | 0 kts | 249° |
| 2026-04-14 16:38 | 50.04470 | 8.57717 | 370 ft | 6 kts | 249° |
| 2026-04-14 16:38 | 50.04443 | 8.57611 | 364 ft | 15 kts | 248° |
| 2026-04-14 16:38 | 50.04395 | 8.57401 | 367 ft | 25 kts | 249° |
| 2026-04-14 16:38 | 50.04325 | 8.57121 | 367 ft | 29 kts | 250° |
| 2026-04-14 16:39 | 50.04256 | 8.56813 | 362 ft | 31 kts | 250° |
| 2026-04-14 16:39 | 50.04199 | 8.56575 | 355 ft | 21 kts | 248° |
| 2026-04-14 16:39 | 50.04149 | 8.56369 | 359 ft | 15 kts | 249° |
| 2026-04-14 16:39 | 50.04191 | 8.56269 | 354 ft | 10 kts | 339° |
| 2026-04-14 16:40 | 50.04253 | 8.56231 | 359 ft | 9 kts | 339° |
| 2026-04-14 16:40 | 50.04285 | 8.56172 | 361 ft | 9 kts | 282° |
| 2026-04-14 16:40 | 50.04314 | 8.56072 | 362 ft | 12 kts | 340° |
| 2026-04-14 16:40 | 50.04403 | 8.56022 | 358 ft | 13 kts | 351° |
| 2026-04-14 16:41 | 50.04450 | 8.56105 | 358 ft | 9 kts | 71° |
| 2026-04-14 16:41 | 50.04425 | 8.56142 | 359 ft | 4 kts | 156° |
| 2026-04-14 16:41 | 50.04407 | 8.56156 | 362 ft | 0 kts | 155° |
| 2026-04-14 16:42 | 50.04395 | 8.56164 | 362 ft | 2 kts | 155° |
| 2026-04-14 16:42 | 50.04390 | 8.56168 | 360 ft | 0 kts | 155° |